Crewkerne, United Kingdom
Current Conditions -  °F | °C
As of 6:50 AM on Saturday 25 Oct 2014 (Local Time) from EGDY Reporting Station
Overcast Overcast  
Wind Chill: 52°   Ceiling: 3800
Heat Index: 52°   Visibility: 6mi
Dew Point: 43°   Wind: 3mph
Humidity: 71%   Direction: 230°SW
Pressure: 30.03"   Gusts: NA
Location:  50.88°N, 2.8°W
Report Text: EGDY 250550Z AUTO 23003KT 9999 OVC038/// 11/06 Q1017
Loading
Personal Weather Stations






























Interactive Weather Map
Tropical Storm Tracking
New forecast layout! Learn more

10-Day Weather Forecast

Advertisements
Track Severe Weather on mobile